Timisoara, Romania
Current Conditions -  °F | °C
As of 3:30 PM on Wednesday 26 Nov 2014 (Local Time) from LRTR Reporting Station
Broken Clouds Broken Clouds  
Wind Chill: 39°   Ceiling: 2800
Heat Index: 39°   Visibility: 6mi
Dew Point: 30°   Wind: 2mph
Humidity: 70%   Direction: NA
Pressure: 30.24"   Gusts: NA
Location:  45.76°N, 21.23°E
Report Text: LRTR 261230Z VRB02KT 9999 BKN028 04/M01 Q1024 NOSIG
Loading
Personal Weather Stations






























Interactive Weather Map New forecast layout! Learn more

10-Day Weather Forecast

Advertisements
Track Severe Weather on mobile